Time;durP1;ratioP1;P1;durP2;ratioP2;P2;SDS_P1;SDS_P2;PMS_P1;PMS_P2;Temp;Humidity;BMP_temperature;BMP_pressure;BME280_temperature;BME280_humidity;BME280_pressure;Samples;Min_cycle;Max_cycle;Signal;HPM_P1;HPM_P2
2022/12/06 00:00:54;;;;;;;22.20;9.35;;;;;;;4.72;100.00;102006.22;5065744;28;20187;-70
2022/12/06 00:03:19;;;;;;;21.13;8.77;;;;;;;4.70;100.00;102007.00;5047602;28;20030;-70
2022/12/06 00:05:45;;;;;;;18.33;8.48;;;;;;;4.70;100.00;102001.84;5059215;28;20091;-70
2022/12/06 00:08:10;;;;;;;18.63;9.10;;;;;;;4.70;100.00;102011.28;5060840;28;20032;-70
2022/12/06 00:10:36;;;;;;;21.50;8.93;;;;;;;4.69;100.00;102005.22;5057920;28;20279;-71
2022/12/06 00:13:03;;;;;;;17.15;8.32;;;;;;;4.68;100.00;102003.44;5056509;28;20316;-71
2022/12/06 00:15:28;;;;;;;17.52;8.30;;;;;;;4.68;100.00;102000.84;5062561;28;20029;-70
2022/12/06 00:17:54;;;;;;;17.55;8.50;;;;;;;4.67;100.00;102004.22;5054966;28;20017;-70
2022/12/06 00:20:19;;;;;;;19.20;8.77;;;;;;;4.66;100.00;102005.03;5061482;28;20022;-70
2022/12/06 00:22:44;;;;;;;18.25;8.48;;;;;;;4.65;100.00;102005.81;5056566;28;20275;-70
2022/12/06 00:25:10;;;;;;;19.05;8.68;;;;;;;4.65;100.00;102005.81;5058937;28;20178;-70
2022/12/06 00:27:35;;;;;;;18.70;8.40;;;;;;;4.64;100.00;102004.03;5060207;28;20080;-70
2022/12/06 00:30:00;;;;;;;17.00;7.88;;;;;;;4.65;100.00;102003.25;5060877;28;20420;-70
2022/12/06 00:32:26;;;;;;;16.40;7.85;;;;;;;4.66;100.00;102005.03;5058650;28;20266;-70
2022/12/06 00:34:51;;;;;;;17.98;9.15;;;;;;;4.68;100.00;102008.59;5059740;28;20047;-70
2022/12/06 00:37:16;;;;;;;16.27;7.95;;;;;;;4.68;100.00;102003.44;5062650;28;20074;-71
2022/12/06 00:39:42;;;;;;;16.65;8.40;;;;;;;4.72;100.00;102008.78;5063821;28;20096;-70
2022/12/06 00:42:07;;;;;;;17.40;8.30;;;;;;;4.72;100.00;102004.50;5063542;28;20045;-70
2022/12/06 00:44:32;;;;;;;14.98;7.95;;;;;;;4.72;100.00;101999.34;5056108;28;20091;-70
2022/12/06 00:46:58;;;;;;;17.33;8.18;;;;;;;4.74;100.00;101997.78;5060046;28;20179;-64
2022/12/06 00:49:23;;;;;;;13.95;7.72;;;;;;;4.75;100.00;102003.84;5061296;28;20139;-63
2022/12/06 00:51:48;;;;;;;15.73;7.75;;;;;;;4.76;100.00;102000.47;5052575;28;20216;-64
2022/12/06 00:54:14;;;;;;;14.45;7.57;;;;;;;4.76;100.00;101996.19;5051993;28;20096;-64
2022/12/06 00:56:39;;;;;;;14.20;7.65;;;;;;;4.77;100.00;102000.56;5052650;28;20083;-64
2022/12/06 00:59:05;;;;;;;16.63;7.45;;;;;;;4.78;100.00;101998.88;5051154;28;20032;-64
2022/12/06 01:01:32;;;;;;;13.90;6.97;;;;;;;4.78;100.00;102004.03;5059778;28;20051;-64
2022/12/06 01:04:00;;;;;;;13.77;7.18;;;;;;;4.77;100.00;101995.41;5060893;28;20052;-64
2022/12/06 01:06:28;;;;;;;12.65;7.18;;;;;;;4.78;100.00;102004.03;5058512;28;20031;-64
2022/12/06 01:08:55;;;;;;;14.45;6.95;;;;;;;4.76;100.00;102003.94;5054653;28;20033;-64
2022/12/06 01:11:21;;;;;;;12.82;7.05;;;;;;;4.76;100.00;102003.03;5057702;28;20232;-64
2022/12/06 01:13:47;;;;;;;11.93;6.90;;;;;;;4.77;100.00;101997.09;5053933;28;20276;-64
2022/12/06 01:16:16;;;;;;;12.57;6.93;;;;;;;4.78;100.00;101992.03;5055349;28;20079;-64
2022/12/06 01:18:43;;;;;;;13.85;6.72;;;;;;;4.80;100.00;101997.28;5055767;28;20029;-63
2022/12/06 01:21:17;;;;;;;12.27;6.50;;;;;;;4.79;100.00;101993.81;5055248;28;20100;-65
2022/12/06 01:23:43;;;;;;;10.98;6.18;;;;;;;4.81;100.00;101996.50;5050459;28;20068;-64
2022/12/06 01:26:29;;;;;;;11.23;6.07;;;;;;;4.81;100.00;102001.69;5057387;28;20088;-70
2022/12/06 01:28:56;;;;;;;10.82;6.20;;;;;;;4.79;100.00;102001.53;5055546;28;20032;-70
2022/12/06 01:31:22;;;;;;;10.65;5.80;;;;;;;4.81;100.00;102009.44;5048184;28;20029;-70
2022/12/06 01:33:47;;;;;;;12.00;6.05;;;;;;;4.80;100.00;102002.47;5044404;28;20172;-70
2022/12/06 01:36:22;;;;;;;10.52;5.70;;;;;;;4.81;100.00;102001.69;5057189;28;20041;-71
2022/12/06 01:38:51;;;;;;;9.95;5.82;;;;;;;4.78;100.00;102004.03;5049293;28;20018;-70
2022/12/06 01:41:19;;;;;;;11.60;5.60;;;;;;;4.76;100.00;102003.94;5061297;28;20035;-71
2022/12/06 01:43:45;;;;;;;10.57;5.65;;;;;;;4.76;100.00;102008.22;5056429;28;20025;-70
2022/12/06 01:46:27;;;;;;;11.02;5.70;;;;;;;4.78;100.00;102009.19;5051846;28;20048;-70
2022/12/06 01:49:16;;;;;;;11.77;6.07;;;;;;;4.77;100.00;102002.25;5055652;28;20092;-70
2022/12/06 01:51:59;;;;;;;10.47;5.90;;;;;;;4.78;100.00;101993.69;5059301;28;20055;-71
2022/12/06 01:54:25;;;;;;;9.73;5.57;;;;;;;4.77;100.00;101997.97;5044227;28;20337;-70
2022/12/06 01:56:52;;;;;;;11.18;5.65;;;;;;;4.76;100.00;101995.31;5056623;28;20120;-70
2022/12/06 01:59:19;;;;;;;12.80;6.05;;;;;;;4.75;100.00;101993.50;5060821;28;20028;-70
2022/12/06 02:01:45;;;;;;;12.02;5.93;;;;;;;4.74;100.00;101989.16;5053855;28;20024;-70
2022/12/06 02:04:11;;;;;;;12.60;6.03;;;;;;;4.75;100.00;101997.00;5050469;28;20037;-71
2022/12/06 02:06:38;;;;;;;10.75;5.82;;;;;;;4.74;100.00;101997.78;5049502;28;20033;-70
2022/12/06 02:09:06;;;;;;;10.13;5.47;;;;;;;4.72;100.00;101999.34;5042610;28;20033;-71
2022/12/06 02:11:32;;;;;;;10.40;5.18;;;;;;;4.72;100.00;101998.47;5051509;28;20068;-70
2022/12/06 02:13:57;;;;;;;11.77;5.65;;;;;;;4.72;100.00;101995.88;5062086;28;20037;-71
2022/12/06 02:16:29;;;;;;;11.82;5.95;;;;;;;4.71;100.00;102000.16;5062867;28;20191;-70
2022/12/06 02:19:12;;;;;;;11.43;5.97;;;;;;;4.69;100.00;102002.66;5067975;28;20040;-70
2022/12/06 02:22:10;;;;;;;9.90;4.88;;;;;;;4.69;100.00;102002.66;5059571;28;20021;-71
2022/12/06 02:24:56;;;;;;;10.85;5.90;;;;;;;4.67;100.00;101993.91;5061280;28;20029;-70
2022/12/06 02:27:33;;;;;;;8.65;4.78;;;;;;;4.67;100.00;101993.00;5049842;28;20222;-64
2022/12/06 02:30:30;;;;;;;9.85;4.80;;;;;;;4.68;100.00;101992.22;5056501;28;20097;-64
2022/12/06 02:33:05;;;;;;;8.18;4.35;;;;;;;4.68;100.00;101993.09;5054202;28;20226;-63
2022/12/06 02:35:39;;;;;;;9.32;4.80;;;;;;;4.69;100.00;101994.00;5052384;28;20021;-64
2022/12/06 02:38:15;;;;;;;8.98;4.50;;;;;;;4.68;100.00;101985.38;5053886;28;20025;-64
2022/12/06 02:40:46;;;;;;;10.38;4.97;;;;;;;4.68;100.00;101987.94;5051827;28;20033;-64
2022/12/06 02:43:16;;;;;;;9.68;4.97;;;;;;;4.68;100.00;101987.94;5049137;28;20341;-64
2022/12/06 02:45:47;;;;;;;8.57;4.88;;;;;;;4.68;100.00;101982.78;5050684;28;20314;-63
2022/12/06 02:48:14;;;;;;;8.88;4.90;;;;;;;4.69;100.00;101983.66;5048481;28;20190;-64
2022/12/06 02:50:43;;;;;;;10.00;5.18;;;;;;;4.68;100.00;101980.19;5049896;28;20049;-64
2022/12/06 02:53:15;;;;;;;9.20;4.57;;;;;;;4.69;100.00;101982.00;5056744;28;20024;-64
2022/12/06 02:55:42;;;;;;;9.80;4.80;;;;;;;4.68;100.00;101981.91;5049580;28;20079;-64
2022/12/06 02:58:08;;;;;;;8.75;4.55;;;;;;;4.68;100.00;101977.63;5055789;28;20024;-71
2022/12/06 03:00:37;;;;;;;9.45;4.47;;;;;;;4.68;100.00;101975.03;5057091;28;20036;-70
2022/12/06 03:03:27;;;;;;;10.32;4.90;;;;;;;4.69;100.00;101978.50;5052237;28;20036;-70
2022/12/06 03:06:01;;;;;;;9.70;4.60;;;;;;;4.69;100.00;101981.09;5048435;28;20295;-71
2022/12/06 03:09:07;;;;;;;10.95;5.10;;;;;;;4.69;100.00;101975.91;5051672;28;20021;-71
2022/12/06 03:12:10;;;;;;;8.07;4.07;;;;;;;4.72;100.00;101975.22;5044917;28;20044;-70
2022/12/06 03:15:17;;;;;;;8.73;4.32;;;;;;;4.70;100.00;101980.31;5046922;28;20076;-70
2022/12/06 03:17:59;;;;;;;10.70;4.45;;;;;;;4.71;100.00;101979.50;5009632;28;20296;-71
2022/12/06 03:20:30;;;;;;;9.70;4.00;;;;;;;4.71;100.00;101979.50;5047629;28;20029;-70
2022/12/06 03:23:04;;;;;;;9.40;4.72;;;;;;;4.72;100.00;101976.13;5045510;28;20067;-70
2022/12/06 03:25:32;;;;;;;9.98;4.90;;;;;;;4.72;100.00;101986.44;5049872;28;20039;-70
2022/12/06 03:27:59;;;;;;;10.05;4.40;;;;;;;4.73;100.00;101988.25;5046050;28;20101;-63
2022/12/06 03:30:26;;;;;;;10.07;4.90;;;;;;;4.73;100.00;101984.78;5045299;28;20033;-63
2022/12/06 03:32:51;;;;;;;10.40;4.68;;;;;;;4.73;100.00;101980.50;5046500;28;20280;-64
2022/12/06 03:35:23;;;;;;;9.90;4.47;;;;;;;4.75;100.00;101984.09;5049065;28;20024;-63
2022/12/06 03:37:54;;;;;;;10.35;4.95;;;;;;;4.75;100.00;101986.66;5052706;28;20275;-64
2022/12/06 03:40:25;;;;;;;9.70;4.72;;;;;;;4.74;100.00;101982.28;5058940;28;20559;-64
2022/12/06 03:42:51;;;;;;;13.15;4.72;;;;;;;4.74;100.00;101986.56;5053618;28;20025;-64
2022/12/06 03:45:18;;;;;;;9.18;4.57;;;;;;;4.73;100.00;101985.66;5055208;28;20041;-64
2022/12/06 03:48:12;;;;;;;10.00;4.75;;;;;;;4.75;100.00;101983.19;5060986;28;20029;-64
2022/12/06 03:50:46;;;;;;;9.55;4.47;;;;;;;4.75;100.00;101978.00;5058643;28;20276;-64
2022/12/06 03:53:11;;;;;;;10.75;4.88;;;;;;;4.74;100.00;101984.00;5053007;28;20029;-64
2022/12/06 03:55:37;;;;;;;11.65;5.43;;;;;;;4.76;100.00;101979.81;5054322;28;20044;-64
2022/12/06 03:58:02;;;;;;;10.88;4.93;;;;;;;4.76;100.00;101982.38;5051769;28;20280;-70
2022/12/06 04:00:28;;;;;;;9.88;4.82;;;;;;;4.74;100.00;101978.84;5054781;28;20057;-71
2022/12/06 04:02:53;;;;;;;10.15;5.07;;;;;;;4.75;100.00;101972.84;5039407;28;20087;-70
2022/12/06 04:05:18;;;;;;;12.40;5.28;;;;;;;4.74;100.00;101976.25;5050560;28;20052;-70
2022/12/06 04:07:43;;;;;;;10.23;5.10;;;;;;;4.76;100.00;101984.97;5052694;28;20096;-70
2022/12/06 04:10:09;;;;;;;11.52;5.07;;;;;;;4.76;100.00;101984.97;5059365;28;20128;-71
2022/12/06 04:15:21;;;;;;;10.35;5.10;;;;;;;4.73;100.00;101979.63;5057389;28;20047;-71
2022/12/06 04:23:17;;;;;;;12.00;4.82;;;;;;;4.72;100.00;101972.66;5053882;28;20067;-70
2022/12/06 04:25:42;;;;;;;10.50;4.97;;;;;;;4.72;100.00;101976.13;5057193;28;20056;-70
2022/12/06 04:39:03;;;;;;;10.75;4.95;;;;;;;4.76;100.00;101982.38;5063253;28;20048;-64
2022/12/06 04:44:12;;;;;;;11.50;5.18;;;;;;;4.73;100.00;101984.78;5055413;28;20068;-64
2022/12/06 04:46:37;;;;;;;12.85;5.43;;;;;;;4.75;100.00;101983.19;5057986;28;20104;-64
2022/12/06 04:49:03;;;;;;;10.07;4.72;;;;;;;4.73;100.00;101982.19;5050831;28;20022;-63
2022/12/06 04:51:28;;;;;;;10.73;4.75;;;;;;;4.73;100.00;101980.50;5054176;28;20079;-64
2022/12/06 04:53:53;;;;;;;10.95;5.47;;;;;;;4.72;100.00;101981.28;5050418;28;20306;-64
2022/12/06 04:56:18;;;;;;;13.07;5.60;;;;;;;4.72;100.00;101980.41;5040040;28;20028;-70
2022/12/06 04:58:44;;;;;;;13.32;5.30;;;;;;;4.72;100.00;101976.13;5055114;28;20042;-70
2022/12/06 05:01:09;;;;;;;11.52;4.95;;;;;;;4.69;100.00;101976.84;5052657;28;20585;-71
2022/12/06 05:03:36;;;;;;;11.52;4.93;;;;;;;4.68;100.00;101976.75;5045869;28;20041;-71
2022/12/06 05:06:01;;;;;;;10.82;5.25;;;;;;;4.67;100.00;101975.81;5048330;28;20088;-71
2022/12/06 05:08:26;;;;;;;10.35;5.03;;;;;;;4.67;100.00;101978.41;5056914;28;20052;-70
2022/12/06 05:10:52;;;;;;;10.73;4.80;;;;;;;4.67;100.00;101977.53;5048470;28;20029;-71
2022/12/06 05:13:18;;;;;;;10.15;4.78;;;;;;;4.66;100.00;101979.22;5052587;28;20083;-71
2022/12/06 05:15:57;;;;;;;9.95;4.80;;;;;;;4.68;100.00;101977.63;5064418;28;20048;-70
2022/12/06 05:18:23;;;;;;;10.15;5.18;;;;;;;4.66;100.00;101971.47;5052859;28;20029;-70
2022/12/06 05:20:49;;;;;;;10.10;4.70;;;;;;;4.66;100.00;101971.47;5062182;28;20159;-70
2022/12/06 05:23:16;;;;;;;13.00;4.75;;;;;;;4.65;100.00;101967.09;5056472;28;20159;-70
2022/12/06 05:25:42;;;;;;;11.23;4.63;;;;;;;4.66;100.00;101974.06;5059275;28;20275;-70
2022/12/06 05:28:08;;;;;;;11.60;5.00;;;;;;;4.67;100.00;101973.25;5052453;28;20210;-70
2022/12/06 05:30:34;;;;;;;11.70;4.95;;;;;;;4.67;100.00;101968.06;5059917;28;20087;-71
2022/12/06 05:32:59;;;;;;;10.57;4.78;;;;;;;4.68;100.00;101967.28;5058626;28;20049;-70
2022/12/06 05:35:24;;;;;;;11.95;5.03;;;;;;;4.68;100.00;101969.00;5045811;28;20079;-71
2022/12/06 05:37:50;;;;;;;8.98;4.18;;;;;;;4.68;100.00;101969.00;5042335;28;20037;-70
2022/12/06 05:40:15;;;;;;;10.30;4.35;;;;;;;4.66;100.00;101970.56;5025677;28;20037;-71
2022/12/06 05:42:41;;;;;;;11.25;4.45;;;;;;;4.66;100.00;101966.31;5044136;28;20025;-70
2022/12/06 05:45:08;;;;;;;9.95;4.65;;;;;;;4.66;100.00;101965.41;5046628;28;20100;-71
2022/12/06 05:47:33;;;;;;;9.50;4.13;;;;;;;4.66;100.00;101974.06;5041802;28;20684;-71
2022/12/06 05:49:58;;;;;;;9.25;4.32;;;;;;;4.65;100.00;101974.84;5047570;28;20079;-70
2022/12/06 05:52:24;;;;;;;9.00;4.03;;;;;;;4.64;100.00;101973.03;5043253;28;20387;-70
2022/12/06 05:54:49;;;;;;;10.05;4.30;;;;;;;4.63;100.00;101975.53;5054361;28;20093;-70
2022/12/06 05:57:14;;;;;;;9.52;4.00;;;;;;;4.61;100.00;101969.38;5060289;28;20139;-71
2022/12/06 05:59:40;;;;;;;10.77;4.43;;;;;;;4.60;100.00;101968.47;5060773;28;20330;-70
2022/12/06 06:02:05;;;;;;;11.38;4.47;;;;;;;4.62;100.00;101976.31;5059906;28;20068;-70
2022/12/06 06:04:30;;;;;;;11.32;4.32;;;;;;;4.61;100.00;101975.44;5054489;28;20049;-71
2022/12/06 06:06:56;;;;;;;8.32;4.32;;;;;;;4.62;100.00;101972.06;5060443;28;20021;-70
2022/12/06 06:09:23;;;;;;;10.38;4.20;;;;;;;4.62;100.00;101973.72;5062412;28;20025;-71
2022/12/06 06:11:48;;;;;;;9.45;4.22;;;;;;;4.61;100.00;101971.97;5039569;28;20021;-70
2022/12/06 06:14:13;;;;;;;13.13;4.63;;;;;;;4.59;100.00;101979.59;5060126;28;20036;-71
2022/12/06 06:16:39;;;;;;;9.48;4.13;;;;;;;4.59;100.00;101974.44;5060733;28;20044;-70
2022/12/06 06:19:04;;;;;;;11.02;4.40;;;;;;;4.59;100.00;101977.03;5055901;28;20017;-71
2022/12/06 06:21:29;;;;;;;9.40;4.10;;;;;;;4.59;100.00;101974.44;5057678;28;20036;-69
2022/12/06 06:23:55;;;;;;;8.43;4.60;;;;;;;4.60;100.00;101978.78;5055251;28;20071;-70
2022/12/06 06:26:21;;;;;;;9.18;4.18;;;;;;;4.60;100.00;101977.91;5055472;28;20044;-70
2022/12/06 06:28:46;;;;;;;8.57;4.20;;;;;;;4.61;100.00;101983.16;5053026;28;20212;-71
2022/12/06 06:31:11;;;;;;;9.90;4.30;;;;;;;4.59;100.00;101974.44;5054316;28;20020;-71
2022/12/06 06:33:36;;;;;;;9.85;4.13;;;;;;;4.59;100.00;101974.44;5056118;28;20051;-70
2022/12/06 06:36:02;;;;;;;9.45;4.15;;;;;;;4.58;100.00;101977.81;5055037;28;20051;-71
2022/12/06 06:38:27;;;;;;;8.05;3.88;;;;;;;4.55;100.00;101972.44;5051450;28;20041;-70
2022/12/06 06:40:53;;;;;;;9.65;4.15;;;;;;;4.53;100.00;101980.09;5057302;28;20100;-70
2022/12/06 06:43:19;;;;;;;9.65;4.03;;;;;;;4.52;100.00;101973.13;5051455;28;20060;-71
2022/12/06 06:45:53;;;;;;;8.15;3.95;;;;;;;4.50;100.00;101969.56;5051159;28;20260;-70
2022/12/06 06:48:20;;;;;;;9.60;3.88;;;;;;;4.50;100.00;101973.81;5055871;28;20074;-71
2022/12/06 06:50:45;;;;;;;8.27;4.00;;;;;;;4.47;100.00;101971.03;5051468;28;20040;-70
2022/12/06 06:53:10;;;;;;;8.10;3.88;;;;;;;4.45;100.00;101967.47;5046543;28;20324;-71
2022/12/06 06:55:36;;;;;;;8.50;4.35;;;;;;;4.42;100.00;101973.31;5051370;28;20025;-70
2022/12/06 06:58:02;;;;;;;8.65;4.20;;;;;;;4.38;100.00;101970.44;5056559;28;20021;-71
2022/12/06 07:00:27;;;;;;;9.30;3.90;;;;;;;4.34;100.00;101971.91;5058725;28;20044;-71
2022/12/06 07:02:52;;;;;;;8.77;3.85;;;;;;;4.30;100.00;101970.81;5055469;28;20025;-71
2022/12/06 07:05:18;;;;;;;7.88;3.60;;;;;;;4.27;100.00;101974.84;5051234;28;20032;-70
2022/12/06 07:07:45;;;;;;;7.03;3.55;;;;;;;4.25;100.00;101969.59;5044608;28;20017;-70
2022/12/06 07:10:11;;;;;;;10.15;3.90;;;;;;;4.22;100.00;101971.97;5042622;28;20056;-71
2022/12/06 07:12:36;;;;;;;8.50;3.42;;;;;;;4.18;100.00;101965.69;5041640;28;20048;-71
2022/12/06 07:15:01;;;;;;;8.00;4.00;;;;;;;4.16;100.00;101969.88;5046503;28;20029;-71
2022/12/06 07:17:27;;;;;;;8.32;3.63;;;;;;;4.13;100.00;101979.97;5043710;28;20041;-71
2022/12/06 07:19:52;;;;;;;11.63;3.85;;;;;;;4.11;100.00;101972.94;5041225;28;20052;-70
2022/12/06 07:22:17;;;;;;;9.05;3.28;;;;;;;4.08;100.00;101972.72;5046868;28;20305;-70
2022/12/06 07:24:42;;;;;;;7.78;3.80;;;;;;;4.06;100.00;101974.31;5050969;28;20048;-71
2022/12/06 07:27:08;;;;;;;6.95;3.60;;;;;;;4.06;100.00;101970.03;5055381;28;20025;-71
2022/12/06 07:29:33;;;;;;;9.43;4.03;;;;;;;4.06;100.00;101979.47;5059146;28;20025;-71
2022/12/06 07:31:58;;;;;;;8.95;4.20;;;;;;;4.05;100.00;101977.69;5051309;28;20021;-71
2022/12/06 07:34:23;;;;;;;11.57;4.15;;;;;;;4.05;100.00;101975.09;5041874;28;20029;-70
2022/12/06 07:36:49;;;;;;;9.48;4.05;;;;;;;4.05;100.00;101970.81;5053735;28;20040;-70
2022/12/06 07:39:14;;;;;;;10.55;4.70;;;;;;;4.05;100.00;101975.09;5051300;28;20096;-71
2022/12/06 07:47:07;;;;;;;9.63;3.70;;;;;;;4.07;100.00;101977.00;5050707;28;20175;-71
2022/12/06 07:49:33;;;;;;;10.27;4.07;;;;;;;4.08;100.00;101980.47;5055294;28;20048;-70
2022/12/06 07:51:58;;;;;;;9.48;3.95;;;;;;;4.09;100.00;101975.41;5053839;28;20055;-70
2022/12/06 07:54:24;;;;;;;9.45;3.90;;;;;;;4.10;100.00;101990.09;5052838;28;20029;-71
2022/12/06 07:56:50;;;;;;;8.65;4.00;;;;;;;4.12;100.00;101995.34;5051338;28;20319;-71
2022/12/06 07:59:15;;;;;;;9.00;3.83;;;;;;;4.11;100.00;101993.56;5060247;28;20049;-70
2022/12/06 08:01:42;;;;;;;8.60;4.10;;;;;;;4.12;100.00;101987.63;5045959;28;20029;-70
2022/12/06 08:04:07;;;;;;;8.50;3.97;;;;;;;4.12;100.00;101997.94;5044235;28;20113;-71
2022/12/06 08:06:34;;;;;;;9.05;4.40;;;;;;;4.11;100.00;101996.13;5055181;28;20056;-63
2022/12/06 08:08:59;;;;;;;9.30;4.10;;;;;;;4.12;100.00;101997.94;5056619;28;20294;-64
2022/12/06 08:11:24;;;;;;;8.52;4.25;;;;;;;4.13;100.00;101997.16;5054431;28;20029;-63
2022/12/06 08:13:51;;;;;;;9.75;4.32;;;;;;;4.12;100.00;101995.34;5056365;28;20040;-64
2022/12/06 08:16:17;;;;;;;8.52;4.03;;;;;;;4.13;100.00;101989.41;5044111;28;20040;-64
2022/12/06 08:18:42;;;;;;;10.25;4.15;;;;;;;4.15;100.00;101999.03;5057228;28;20180;-64
2022/12/06 08:21:08;;;;;;;9.90;3.90;;;;;;;4.15;100.00;101996.44;5051892;28;20041;-64
2022/12/06 08:23:33;;;;;;;9.93;4.15;;;;;;;4.17;100.00;101992.31;5054303;28;20044;-64
2022/12/06 08:26:02;;;;;;;8.75;4.18;;;;;;;4.19;100.00;101994.97;5048341;28;20365;-64
2022/12/06 08:28:29;;;;;;;9.35;4.40;;;;;;;4.21;100.00;102001.13;5053502;28;20029;-64
2022/12/06 08:30:55;;;;;;;9.82;4.85;;;;;;;4.23;100.00;101998.66;5048317;28;20043;-64
2022/12/06 08:33:23;;;;;;;8.02;4.05;;;;;;;4.25;100.00;101995.41;5051025;28;20049;-63
2022/12/06 08:35:48;;;;;;;8.95;4.55;;;;;;;4.26;100.00;101997.19;5048709;28;20082;-64
2022/12/06 08:38:15;;;;;;;8.93;4.35;;;;;;;4.25;100.00;102000.56;5062079;28;20032;-64
2022/12/06 08:40:40;;;;;;;8.52;4.50;;;;;;;4.26;100.00;101996.28;5039060;28;20161;-64
2022/12/06 08:43:06;;;;;;;10.40;5.40;;;;;;;4.27;100.00;101995.50;5051497;28;20028;-64
2022/12/06 08:45:32;;;;;;;8.05;4.15;;;;;;;4.25;100.00;102003.13;5053774;28;20106;-64
2022/12/06 08:47:58;;;;;;;8.18;4.35;;;;;;;4.22;100.00;102002.94;5051637;28;20025;-64
2022/12/06 08:50:23;;;;;;;7.20;3.92;;;;;;;4.21;100.00;102002.81;5059776;28;20025;-64
2022/12/06 08:52:48;;;;;;;9.30;4.22;;;;;;;4.18;100.00;102011.25;5062580;28;20100;-64
2022/12/06 08:55:14;;;;;;;10.60;4.30;;;;;;;4.15;100.00;102009.34;5060137;28;20032;-64
2022/12/06 08:57:39;;;;;;;8.85;4.30;;;;;;;4.11;100.00;102007.38;5053916;28;20282;-64
2022/12/06 09:00:06;;;;;;;8.23;4.15;;;;;;;4.08;100.00;102011.41;5062525;28;20045;-64
2022/12/06 09:02:31;;;;;;;7.68;4.30;;;;;;;4.05;100.00;102009.50;5058553;28;20176;-64
2022/12/06 09:04:56;;;;;;;7.63;3.95;;;;;;;4.05;100.00;102009.50;5048662;28;20112;-64
2022/12/06 09:07:22;;;;;;;6.72;3.75;;;;;;;4.03;100.00;102010.19;5046830;28;20063;-65
2022/12/06 09:09:47;;;;;;;9.02;4.38;;;;;;;4.02;100.00;102013.56;5051311;28;20051;-64
2022/12/06 09:12:13;;;;;;;7.68;4.07;;;;;;;4.01;100.00;102012.66;5053542;28;20032;-64
2022/12/06 09:14:38;;;;;;;8.32;4.00;;;;;;;3.98;100.00;102015.94;5045076;28;20029;-64
2022/12/06 09:17:04;;;;;;;10.40;5.65;;;;;;;3.98;100.00;102007.28;5046674;28;20096;-71
2022/12/06 09:19:30;;;;;;;10.82;5.43;;;;;;;3.98;100.00;102015.94;5047980;28;20096;-71
2022/12/06 09:21:55;;;;;;;9.10;4.72;;;;;;;3.99;100.00;102022.88;5047986;28;20035;-71
2022/12/06 09:24:21;;;;;;;10.35;4.97;;;;;;;3.99;100.00;102019.41;5061839;28;20029;-70
2022/12/06 09:26:46;;;;;;;8.88;4.75;;;;;;;3.96;100.00;102020.09;5061578;28;20025;-71
2022/12/06 09:29:14;;;;;;;8.75;4.05;;;;;;;3.94;100.00;102024.25;5057933;28;20179;-71
2022/12/06 09:31:39;;;;;;;10.10;4.18;;;;;;;3.93;100.00;102016.41;5055795;28;20017;-71
2022/12/06 09:34:09;;;;;;;9.55;4.30;;;;;;;3.92;100.00;102020.66;5062862;28;20100;-71
2022/12/06 09:36:43;;;;;;;7.65;4.28;;;;;;;3.92;100.00;102020.66;5046974;28;20215;-71
2022/12/06 09:39:14;;;;;;;9.90;4.80;;;;;;;3.93;100.00;102019.00;5043461;28;20100;-70
2022/12/06 09:42:23;;;;;;;8.93;4.95;;;;;;;3.98;100.00;102026.25;5043877;28;20216;-70
2022/12/06 09:45:05;;;;;;;8.88;4.60;;;;;;;4.03;100.00;102026.56;5027874;28;20045;-70
2022/12/06 09:47:47;;;;;;;8.95;4.57;;;;;;;4.03;100.00;102026.56;5049359;28;20101;-69
2022/12/06 09:50:42;;;;;;;9.70;4.70;;;;;;;4.06;100.00;102023.31;5049872;28;20594;-69
2022/12/06 09:53:33;;;;;;;8.85;4.65;;;;;;;4.08;100.00;102024.31;5050172;28;20064;-68
2022/12/06 09:56:34;;;;;;;10.05;4.63;;;;;;;4.12;100.00;102029.78;5053596;28;20041;-69
2022/12/06 09:59:31;;;;;;;7.55;4.10;;;;;;;4.14;100.00;102027.28;5046559;28;20041;-69
2022/12/06 10:02:18;;;;;;;7.85;3.65;;;;;;;4.15;100.00;102031.69;5061780;28;20028;-69
2022/12/06 10:05:08;;;;;;;8.73;4.00;;;;;;;4.14;100.00;102020.47;5060158;28;20028;-69
2022/12/06 10:08:00;;;;;;;7.05;3.50;;;;;;;4.18;100.00;102029.31;5057286;28;20020;-69
2022/12/06 10:10:53;;;;;;;6.30;3.13;;;;;;;4.20;100.00;102016.50;5055777;28;20080;-69
2022/12/06 10:13:22;;;;;;;7.57;3.70;;;;;;;4.20;100.00;102013.94;5054833;28;20141;-69
2022/12/06 10:16:02;;;;;;;7.03;3.50;;;;;;;4.20;100.00;102009.69;5054590;28;20048;-69
2022/12/06 10:18:43;;;;;;;7.63;3.78;;;;;;;4.21;100.00;102011.44;5061993;28;20033;-69
2022/12/06 10:21:40;;;;;;;7.95;3.80;;;;;;;4.23;100.00;102009.88;5053058;28;20191;-69
2022/12/06 10:24:26;;;;;;;7.85;3.88;;;;;;;4.25;100.00;102005.72;5030166;28;20040;-69
2022/12/06 10:26:53;;;;;;;7.68;4.47;;;;;;;4.27;100.00;102001.56;5056055;28;20032;-62
2022/12/06 10:29:37;;;;;;;7.82;4.28;;;;;;;4.31;100.00;102003.53;5050294;28;20033;-62
2022/12/06 10:32:40;;;;;;;8.60;4.18;;;;;;;4.34;100.00;102008.03;5058071;28;20044;-62
2022/12/06 10:35:30;;;;;;;8.40;4.13;;;;;;;4.39;100.00;102008.31;5050384;28;20029;-62
2022/12/06 10:38:09;;;;;;;9.68;4.47;;;;;;;4.42;100.00;102004.28;5048044;28;20232;-62
2022/12/06 10:40:52;;;;;;;8.17;4.43;;;;;;;4.46;100.00;102007.94;5060448;28;20048;-62
2022/12/06 10:43:32;;;;;;;9.13;4.70;;;;;;;4.48;100.00;102002.09;5047106;28;20022;-62
2022/12/06 10:49:34;;;;;;;8.80;5.13;;;;;;;4.53;100.00;102012.72;5056579;28;20295;-62
2022/12/06 10:52:14;;;;;;;10.15;4.88;;;;;;;4.54;100.00;102006.78;5057871;28;20084;-62
2022/12/06 10:55:08;;;;;;;9.27;4.80;;;;;;;4.58;100.00;102008.78;5046348;28;20031;-62
2022/12/06 10:57:42;;;;;;;8.18;3.83;;;;;;;4.59;100.00;102009.66;5047171;28;20037;-69
2022/12/06 11:00:13;;;;;;;7.78;3.70;;;;;;;4.59;100.00;102012.25;5049896;28;20089;-69
2022/12/06 11:02:59;;;;;;;8.32;4.57;;;;;;;4.59;100.00;102008.00;5050477;28;20283;-69
2022/12/06 11:05:47;;;;;;;8.27;4.20;;;;;;;4.57;100.00;102003.53;5050765;28;20174;-69
2022/12/06 11:08:20;;;;;;;8.32;4.60;;;;;;;4.60;100.00;102014.94;5047569;28;20085;-70
2022/12/06 11:10:46;;;;;;;9.63;4.78;;;;;;;4.62;100.00;102010.78;5049843;28;20057;-68
2022/12/06 11:13:23;;;;;;;10.10;4.50;;;;;;;4.64;100.00;102010.88;5046312;28;20075;-68
2022/12/06 11:15:57;;;;;;;8.93;4.22;;;;;;;4.66;100.00;102005.03;5045033;28;20025;-68
2022/12/06 11:18:27;;;;;;;9.25;4.10;;;;;;;4.68;100.00;102006.00;5053477;28;20040;-68
2022/12/06 11:21:05;;;;;;;8.38;3.92;;;;;;;4.72;100.00;102006.22;5052397;28;20286;-68
2022/12/06 11:23:59;;;;;;;7.18;3.97;;;;;;;4.73;100.00;102001.16;5051854;28;20025;-68
2022/12/06 11:26:37;;;;;;;9.00;3.60;;;;;;;4.75;100.00;101999.59;5034635;28;20278;-68
2022/12/06 11:29:08;;;;;;;9.40;3.65;;;;;;;4.78;100.00;101999.78;5061102;28;20059;-68
2022/12/06 11:31:52;;;;;;;7.30;3.55;;;;;;;4.83;100.00;101997.50;5058662;28;20172;-68
2022/12/06 11:34:25;;;;;;;8.95;3.67;;;;;;;4.88;100.00;101996.09;5053565;28;20029;-68
2022/12/06 11:36:53;;;;;;;8.93;4.10;;;;;;;4.96;100.00;102000.06;5054260;28;20299;-68
2022/12/06 11:39:19;;;;;;;6.30;3.30;;;;;;;4.98;100.00;102001.09;5057063;28;20041;-68
2022/12/06 11:41:49;;;;;;;6.22;3.50;;;;;;;5.01;100.00;101990.94;5057392;28;20084;-67
2022/12/06 11:44:42;;;;;;;6.13;3.35;;;;;;;5.09;100.00;101975.06;5035494;28;20234;-68
2022/12/06 11:47:13;;;;;;;7.00;3.33;;;;;;;5.15;100.00;101985.78;5043780;28;20151;-68
2022/12/06 11:49:40;;;;;;;7.05;3.67;;;;;;;5.22;100.00;101975.03;5047866;28;20041;-68
2022/12/06 11:52:52;;;;;;;9.75;3.17;;;;;;;5.26;99.70;101969.25;5044838;28;20036;-68
2022/12/06 11:55:25;;;;;;;6.55;2.50;;;;;;;5.28;98.62;101967.66;5018038;28;20042;-68
2022/12/06 11:58:07;;;;;;;6.13;3.13;;;;;;;5.34;98.93;101969.75;5045620;28;20029;-67
2022/12/06 12:00:32;;;;;;;6.95;2.63;;;;;;;5.36;98.77;101966.47;5047142;28;20157;-68
2022/12/06 12:02:58;;;;;;;5.95;2.90;;;;;;;5.36;97.66;101970.75;5047059;28;20037;-68
2022/12/06 12:05:29;;;;;;;5.32;2.60;;;;;;;5.38;97.25;101959.69;5047237;28;20025;-67
2022/12/06 12:08:06;;;;;;;5.75;2.53;;;;;;;5.42;97.69;101959.88;5046230;28;20278;-68